Time;durP1;ratioP1;P1;durP2;ratioP2;P2;SDS_P1;SDS_P2;PMS_P1;PMS_P2;Temp;Humidity;BMP_temperature;BMP_pressure;BME280_temperature;BME280_humidity;BME280_pressure;Samples;Min_cycle;Max_cycle;Signal;HPM_P1;HPM_P2
2022/11/20 00:00:53;;;;;;;29.57;16.33;;;-1.30;99.90;;;;;;5054275;28;20045;-29
2022/11/20 00:03:19;;;;;;;28.70;16.77;;;-1.30;99.90;;;;;;5053686;28;20051;-28
2022/11/20 00:05:45;;;;;;;30.13;16.93;;;-1.20;99.90;;;;;;5054192;28;20049;-29
2022/11/20 00:08:11;;;;;;;28.80;16.73;;;-1.20;99.90;;;;;;5052368;28;20055;-29
2022/11/20 00:10:38;;;;;;;32.93;17.37;;;-1.20;99.90;;;;;;5053507;28;20045;-30
2022/11/20 00:13:04;;;;;;;27.93;15.53;;;-1.20;99.90;;;;;;5053461;28;20123;-29
2022/11/20 00:15:30;;;;;;;26.80;14.83;;;-1.20;99.90;;;;;;5053522;28;20052;-29
2022/11/20 00:17:56;;;;;;;27.27;14.60;;;-1.20;99.90;;;;;;5053373;28;20041;-29
2022/11/20 00:20:22;;;;;;;27.87;15.87;;;-1.20;99.90;;;;;;5053438;28;20090;-29
2022/11/20 00:22:49;;;;;;;30.47;16.17;;;-1.20;99.90;;;;;;5053661;28;20118;-29
2022/11/20 00:25:14;;;;;;;28.20;16.97;;;-1.20;99.90;;;;;;5054003;28;20087;-29
2022/11/20 00:27:40;;;;;;;26.40;15.83;;;-1.20;99.90;;;;;;5053441;28;20037;-29
2022/11/20 00:30:06;;;;;;;28.93;16.73;;;-1.20;99.90;;;;;;5052182;28;20498;-30
2022/11/20 00:32:32;;;;;;;27.30;16.13;;;-1.10;99.90;;;;;;5053666;28;20395;-29
2022/11/20 00:34:58;;;;;;;27.03;16.10;;;-1.10;99.90;;;;;;5052090;28;20044;-29
2022/11/20 00:37:23;;;;;;;26.17;15.97;;;-1.10;99.90;;;;;;5052588;28;20049;-29
2022/11/20 00:39:49;;;;;;;26.37;16.57;;;-1.00;99.90;;;;;;5053236;28;20063;-30
2022/11/20 00:42:15;;;;;;;26.90;15.87;;;-1.00;99.90;;;;;;5052308;28;20502;-29
2022/11/20 00:44:40;;;;;;;24.27;14.67;;;-1.00;99.90;;;;;;5053351;28;20053;-29
2022/11/20 00:47:06;;;;;;;30.43;15.97;;;-0.90;99.90;;;;;;5053185;28;20127;-29
2022/11/20 00:49:32;;;;;;;46.10;23.23;;;-0.90;99.90;;;;;;5053143;28;20111;-30
2022/11/20 00:51:57;;;;;;;55.03;25.27;;;-0.70;99.90;;;;;;5052850;28;20084;-29
2022/11/20 00:54:23;;;;;;;46.67;23.90;;;-0.90;99.90;;;;;;5053157;28;20052;-29
2022/11/20 00:56:49;;;;;;;30.07;17.17;;;-0.80;99.90;;;;;;5053057;28;20123;-29
2022/11/20 00:59:14;;;;;;;32.47;17.50;;;-0.80;99.90;;;;;;5051812;28;20049;-29
2022/11/20 01:01:40;;;;;;;25.90;14.87;;;-0.80;99.90;;;;;;5053598;28;20136;-29
2022/11/20 01:04:06;;;;;;;24.63;14.50;;;-0.80;99.90;;;;;;5054160;28;20102;-30
2022/11/20 01:06:34;;;;;;;23.17;14.73;;;-0.70;99.90;;;;;;5057065;28;20049;-29
2022/11/20 01:09:12;;;;;;;22.77;14.37;;;-0.80;99.90;;;;;;5056760;28;20045;-30
2022/11/20 01:11:43;;;;;;;21.23;13.60;;;-0.80;99.90;;;;;;5057590;28;20048;-29
2022/11/20 01:14:14;;;;;;;25.80;14.17;;;-0.80;99.90;;;;;;5039340;28;20057;-31
2022/11/20 01:16:49;;;;;;;21.10;13.23;;;-0.80;99.90;;;;;;5056623;28;20048;-29
2022/11/20 01:19:18;;;;;;;22.23;13.07;;;-0.80;99.90;;;;;;5056850;28;20110;-30
2022/11/20 01:21:45;;;;;;;22.63;14.17;;;-0.80;99.90;;;;;;5056580;28;20045;-31
2022/11/20 01:24:14;;;;;;;24.80;15.20;;;-0.80;99.90;;;;;;5038922;28;20088;-29
2022/11/20 01:26:42;;;;;;;24.57;15.27;;;-0.80;99.90;;;;;;5056301;28;20048;-29
2022/11/20 01:29:17;;;;;;;27.73;14.60;;;-0.70;99.90;;;;;;5055171;28;20478;-30
2022/11/20 01:31:44;;;;;;;21.87;14.37;;;-0.70;99.90;;;;;;5056383;28;20127;-30
2022/11/20 01:34:12;;;;;;;34.63;17.60;;;-0.70;99.90;;;;;;5056239;28;20407;-30
2022/11/20 01:36:38;;;;;;;32.07;16.60;;;-0.70;99.90;;;;;;5056222;28;20499;-31
2022/11/20 01:39:07;;;;;;;28.77;15.53;;;-0.60;99.90;;;;;;5055816;28;20041;-29
2022/11/20 01:44:21;;;;;;;28.40;16.70;;;-0.70;99.90;;;;;;5056706;28;20067;-30
2022/11/20 01:46:59;;;;;;;24.50;13.90;;;-0.70;99.90;;;;;;5056091;28;20045;-30
2022/11/20 01:49:33;;;;;;;24.10;14.83;;;-0.70;99.90;;;;;;5055709;28;20048;-30
2022/11/20 01:52:31;;;;;;;24.20;14.57;;;-0.70;99.90;;;;;;5056113;28;20088;-29
2022/11/20 01:55:17;;;;;;;21.63;14.47;;;-0.70;99.90;;;;;;5056568;28;20047;-30
2022/11/20 01:57:45;;;;;;;22.07;13.30;;;-0.70;99.90;;;;;;5056667;28;20111;-30
2022/11/20 02:00:13;;;;;;;24.27;13.93;;;-0.40;99.90;;;;;;5055518;28;20131;-30
2022/11/20 02:02:42;;;;;;;26.10;14.77;;;-0.60;99.90;;;;;;5055776;28;20095;-30
2022/11/20 02:05:39;;;;;;;21.13;13.43;;;-0.70;99.90;;;;;;5056249;28;20052;-30
2022/11/20 02:08:06;;;;;;;21.50;13.23;;;-0.60;99.90;;;;;;5054065;28;20057;-29
2022/11/20 02:10:33;;;;;;;26.40;14.33;;;-0.60;99.90;;;;;;5055631;28;20131;-30
2022/11/20 02:15:43;;;;;;;24.47;14.37;;;-0.70;99.90;;;;;;5053484;28;20123;-31
2022/11/20 02:18:11;;;;;;;24.77;15.63;;;-0.60;99.90;;;;;;5054672;28;20041;-30
2022/11/20 02:20:36;;;;;;;26.25;15.43;;;-0.70;99.90;;;;;;5055456;28;20071;-29
2022/11/20 02:23:25;;;;;;;25.10;14.90;;;-0.30;99.90;;;;;;5056004;28;20483;-31
2022/11/20 02:25:53;;;;;;;22.70;14.43;;;-0.70;99.90;;;;;;5045336;28;20475;-30
2022/11/20 02:28:19;;;;;;;18.93;12.37;;;-0.70;99.90;;;;;;5055844;28;20445;-29
2022/11/20 02:30:44;;;;;;;25.30;14.23;;;-0.60;99.90;;;;;;5055254;28;20077;-30
2022/11/20 02:33:10;;;;;;;24.27;15.50;;;-0.70;99.90;;;;;;5055226;28;20494;-30
2022/11/20 02:35:36;;;;;;;22.47;13.87;;;-0.60;99.90;;;;;;5055764;28;20099;-30
2022/11/20 02:38:02;;;;;;;22.13;13.20;;;-0.60;99.90;;;;;;5054021;28;20036;-30
2022/11/20 02:40:29;;;;;;;22.60;13.90;;;-0.50;99.90;;;;;;5055054;28;20052;-30
2022/11/20 02:42:55;;;;;;;24.30;14.53;;;-0.60;99.90;;;;;;5055021;28;20131;-30
2022/11/20 02:45:22;;;;;;;19.93;13.17;;;-0.60;99.90;;;;;;5055207;28;20079;-30
2022/11/20 02:47:48;;;;;;;22.40;13.33;;;-0.60;99.90;;;;;;5054937;28;20450;-30
2022/11/20 02:50:14;;;;;;;20.97;13.50;;;-0.60;99.90;;;;;;5055686;28;20391;-30
2022/11/20 02:52:40;;;;;;;22.67;13.07;;;-0.60;99.90;;;;;;5054211;28;20049;-30
2022/11/20 02:55:06;;;;;;;20.87;13.27;;;-0.60;99.90;;;;;;5053570;28;20106;-31
2022/11/20 02:57:32;;;;;;;19.00;11.87;;;-0.50;99.90;;;;;;5054613;28;20045;-30
2022/11/20 02:59:57;;;;;;;19.27;12.10;;;-0.50;99.90;;;;;;5053531;28;20065;-30
2022/11/20 03:02:23;;;;;;;19.70;12.67;;;-0.50;99.90;;;;;;5054666;28;20548;-30
2022/11/20 03:04:49;;;;;;;21.27;13.33;;;-0.50;99.90;;;;;;5036904;28;20574;-30
2022/11/20 03:07:15;;;;;;;20.53;12.47;;;-0.50;99.90;;;;;;5054762;28;20120;-30
2022/11/20 03:09:41;;;;;;;18.97;12.67;;;-0.50;99.90;;;;;;5055075;28;20051;-32
2022/11/20 03:12:07;;;;;;;17.73;12.33;;;-0.40;99.90;;;;;;5053858;28;20041;-30
2022/11/20 03:14:34;;;;;;;17.27;11.73;;;-0.50;99.90;;;;;;5054605;28;20056;-30
2022/11/20 03:16:59;;;;;;;18.83;12.17;;;-0.40;99.90;;;;;;5054379;28;20049;-30
2022/11/20 03:19:25;;;;;;;19.67;12.47;;;-0.40;99.90;;;;;;5054268;28;20102;-30
2022/11/20 03:21:51;;;;;;;16.03;10.20;;;-0.40;99.90;;;;;;5053084;28;20053;-30
2022/11/20 03:24:16;;;;;;;19.00;10.97;;;-0.40;99.90;;;;;;5054100;28;20048;-30
2022/11/20 03:26:42;;;;;;;18.87;11.23;;;-0.30;99.90;;;;;;5054556;28;20483;-31
2022/11/20 03:29:08;;;;;;;18.47;11.80;;;-0.30;99.90;;;;;;5054163;28;20047;-30
2022/11/20 03:31:36;;;;;;;19.60;11.53;;;-0.30;99.90;;;;;;5054146;28;20461;-30
2022/11/20 03:34:03;;;;;;;16.23;11.50;;;-0.20;99.90;;;;;;5054057;28;20102;-30
2022/11/20 03:36:29;;;;;;;18.87;10.73;;;-0.20;99.90;;;;;;5054019;28;20049;-30
2022/11/20 03:38:56;;;;;;;19.40;11.60;;;-0.20;99.90;;;;;;5053021;28;20051;-31
2022/11/20 03:41:35;;;;;;;15.07;10.30;;;-0.20;99.90;;;;;;5053946;28;20479;-30
2022/11/20 03:44:03;;;;;;;15.87;10.47;;;-0.20;99.90;;;;;;5053707;28;20056;-30
2022/11/20 03:46:29;;;;;;;17.77;11.20;;;-0.20;99.90;;;;;;5054756;28;20084;-31
2022/11/20 03:48:55;;;;;;;19.13;11.73;;;-0.20;99.90;;;;;;5052737;28;20044;-31
2022/11/20 03:51:24;;;;;;;19.37;12.03;;;-0.20;99.90;;;;;;5053863;28;20163;-30
2022/11/20 03:53:52;;;;;;;19.13;12.80;;;-0.20;99.90;;;;;;5053756;28;20399;-31
2022/11/20 03:56:22;;;;;;;15.73;10.70;;;-0.20;99.90;;;;;;5054337;28;20106;-31
2022/11/20 03:58:47;;;;;;;19.90;11.90;;;-0.20;99.90;;;;;;5053636;28;20206;-30
2022/11/20 04:01:16;;;;;;;16.97;11.43;;;-0.20;99.90;;;;;;5052729;28;20127;-31
2022/11/20 04:03:43;;;;;;;17.23;10.33;;;-0.30;99.90;;;;;;5035856;28;20056;-31
2022/11/20 04:06:15;;;;;;;16.30;9.97;;;-0.30;99.90;;;;;;5019504;28;20049;-31
2022/11/20 04:08:41;;;;;;;16.27;10.43;;;-0.30;99.90;;;;;;5053632;28;20073;-31
2022/11/20 04:11:12;;;;;;;17.80;11.60;;;-0.30;99.90;;;;;;5053528;28;20479;-31
2022/11/20 04:13:38;;;;;;;16.43;10.73;;;-0.30;99.90;;;;;;5053995;28;20049;-30
2022/11/20 04:16:06;;;;;;;18.03;11.00;;;-0.30;99.90;;;;;;5053552;28;20084;-31
2022/11/20 04:18:33;;;;;;;20.63;12.27;;;-0.30;99.90;;;;;;5085787;28;20044;-30
2022/11/20 04:20:59;;;;;;;20.03;11.97;;;-0.30;99.90;;;;;;5053486;28;20061;-32
2022/11/20 04:23:25;;;;;;;21.10;11.90;;;-0.20;99.90;;;;;;5053465;28;20163;-30
2022/11/20 04:25:50;;;;;;;20.73;12.50;;;0.00;99.90;;;;;;5053464;28;20045;-32
2022/11/20 04:28:16;;;;;;;18.35;12.00;;;-0.30;99.90;;;;;;5053459;28;20045;-31
2022/11/20 04:30:42;;;;;;;17.57;11.23;;;-0.20;99.90;;;;;;5053412;28;20475;-31
2022/11/20 04:33:08;;;;;;;17.83;12.13;;;-0.30;99.90;;;;;;5053456;28;20095;-31
2022/11/20 04:35:34;;;;;;;18.17;12.30;;;-0.30;99.90;;;;;;5052176;28;20053;-32
2022/11/20 04:38:00;;;;;;;16.33;11.05;;;-0.30;99.90;;;;;;5036776;28;20372;-32
2022/11/20 04:40:27;;;;;;;17.27;11.27;;;-0.30;99.90;;;;;;5057872;28;20048;-31
2022/11/20 04:42:54;;;;;;;18.67;11.88;;;-0.30;99.90;;;;;;5072737;28;20402;-30
2022/11/20 04:45:19;;;;;;;17.80;11.47;;;-0.30;99.90;;;;;;5055714;28;20092;-31
2022/11/20 04:47:45;;;;;;;16.80;11.03;;;-0.30;99.90;;;;;;5056865;28;20079;-32
2022/11/20 04:50:11;;;;;;;15.50;10.50;;;-0.30;99.90;;;;;;5057436;28;20460;-31
2022/11/20 04:52:37;;;;;;;18.73;11.40;;;-0.30;99.90;;;;;;5056970;28;20045;-31
2022/11/20 04:55:03;;;;;;;14.87;10.13;;;-0.30;99.90;;;;;;5057081;28;20052;-31
2022/11/20 04:57:28;;;;;;;16.97;10.97;;;-0.20;99.90;;;;;;5057483;28;20045;-31
2022/11/20 04:59:54;;;;;;;18.87;12.37;;;-0.20;99.90;;;;;;5022376;28;20045;-31
2022/11/20 05:02:20;;;;;;;16.80;11.23;;;-0.20;99.90;;;;;;5057469;28;20049;-32
2022/11/20 05:04:46;;;;;;;17.37;11.90;;;-0.20;99.90;;;;;;5056960;28;20096;-31
2022/11/20 05:07:11;;;;;;;17.50;11.13;;;-0.20;99.90;;;;;;5056807;28;20041;-31
2022/11/20 05:09:37;;;;;;;19.20;11.97;;;-0.20;99.90;;;;;;5039477;28;20052;-31
2022/11/20 05:12:03;;;;;;;18.33;11.20;;;-0.20;99.90;;;;;;5057588;28;20167;-31
2022/11/20 05:14:29;;;;;;;18.20;11.50;;;-0.20;99.90;;;;;;5056905;28;20087;-32
2022/11/20 05:16:54;;;;;;;20.43;13.77;;;-0.20;99.90;;;;;;5056686;28;20471;-31
2022/11/20 05:19:20;;;;;;;17.13;11.37;;;-0.20;99.90;;;;;;5056641;28;20045;-31
2022/11/20 05:21:46;;;;;;;15.07;10.73;;;-0.10;99.90;;;;;;5056775;28;20155;-32
2022/11/20 05:24:12;;;;;;;17.77;11.70;;;-0.20;99.90;;;;;;5056504;28;20041;-32
2022/11/20 05:26:38;;;;;;;21.77;12.03;;;-0.20;99.90;;;;;;5056491;28;20047;-31
2022/11/20 05:29:03;;;;;;;19.67;12.43;;;-0.20;99.90;;;;;;5055860;28;20349;-32
2022/11/20 05:31:29;;;;;;;17.02;11.00;;;-0.20;99.90;;;;;;5056380;28;20128;-32
2022/11/20 05:33:56;;;;;;;16.93;10.90;;;0.10;99.90;;;;;;5056922;28;20088;-31
2022/11/20 05:36:23;;;;;;;18.15;11.40;;;-0.10;99.90;;;;;;5056299;28;20081;-31
2022/11/20 05:38:49;;;;;;;18.42;10.80;;;-0.20;99.90;;;;;;5055050;28;20128;-32
2022/11/20 05:41:17;;;;;;;18.70;11.20;;;-0.20;99.90;;;;;;5056729;28;20144;-31
2022/11/20 05:43:44;;;;;;;15.87;10.27;;;-0.10;99.90;;;;;;5055831;28;20564;-32
2022/11/20 05:46:13;;;;;;;16.13;10.23;;;-0.10;99.90;;;;;;5055955;28;20068;-32
2022/11/20 05:48:40;;;;;;;15.90;10.03;;;-0.10;99.90;;;;;;5056046;28;20057;-31
2022/11/20 05:51:08;;;;;;;18.87;11.97;;;-0.10;99.90;;;;;;5054695;28;20138;-32
2022/11/20 05:53:35;;;;;;;15.27;10.57;;;-0.10;99.90;;;;;;5055985;28;20068;-31
2022/11/20 05:56:03;;;;;;;16.57;11.37;;;-0.10;99.90;;;;;;5055927;28;20053;-32
2022/11/20 05:58:30;;;;;;;15.83;10.40;;;-0.20;99.90;;;;;;5056626;28;20071;-31
2022/11/20 06:01:07;;;;;;;14.23;10.07;;;-0.20;99.90;;;;;;5055861;28;20044;-32
2022/11/20 06:03:32;;;;;;;15.57;11.10;;;-0.10;99.90;;;;;;5055839;28;20040;-31
2022/11/20 06:06:03;;;;;;;19.50;11.30;;;-0.10;99.90;;;;;;5054737;28;20118;-32
2022/11/20 06:08:29;;;;;;;15.00;10.40;;;-0.10;99.90;;;;;;5055666;28;20099;-32
2022/11/20 06:10:55;;;;;;;17.13;10.93;;;-0.10;99.90;;;;;;5055941;28;20147;-32
2022/11/20 06:13:21;;;;;;;15.30;10.07;;;-0.10;99.90;;;;;;5055992;28;20530;-32
2022/11/20 06:15:53;;;;;;;15.80;9.70;;;-0.10;99.90;;;;;;5054373;28;20080;-33
2022/11/20 06:18:20;;;;;;;15.23;10.10;;;-0.20;99.90;;;;;;5056227;28;20040;-32
2022/11/20 06:20:46;;;;;;;16.07;10.50;;;-0.10;99.90;;;;;;5056273;28;20045;-33
2022/11/20 06:23:12;;;;;;;15.07;9.40;;;-0.10;99.90;;;;;;5056236;28;20383;-32
2022/11/20 06:25:39;;;;;;;16.07;9.87;;;-0.10;99.90;;;;;;5055398;28;20059;-32
2022/11/20 06:28:05;;;;;;;16.27;10.20;;;-0.10;99.90;;;;;;5055375;28;20052;-32
2022/11/20 06:30:31;;;;;;;15.43;10.40;;;0.00;99.90;;;;;;5055318;28;20045;-32
2022/11/20 06:32:56;;;;;;;15.27;9.90;;;0.00;99.90;;;;;;5055222;28;20049;-32
2022/11/20 06:35:22;;;;;;;14.53;10.37;;;0.00;99.90;;;;;;5055972;28;20059;-32
2022/11/20 06:37:48;;;;;;;16.65;10.52;;;0.30;99.90;;;;;;5055613;28;20076;-33
2022/11/20 06:40:13;;;;;;;16.17;10.60;;;0.10;99.90;;;;;;5055067;28;20398;-32
2022/11/20 06:42:39;;;;;;;17.67;10.07;;;0.00;99.90;;;;;;5055599;28;20044;-34
2022/11/20 06:45:05;;;;;;;14.48;10.40;;;0.10;99.90;;;;;;5054649;28;20519;-32
2022/11/20 06:47:31;;;;;;;16.53;10.47;;;0.10;99.90;;;;;;5055517;28;20044;-32
2022/11/20 06:49:56;;;;;;;15.38;10.60;;;0.10;99.90;;;;;;5053722;28;20175;-33
2022/11/20 06:52:22;;;;;;;14.40;9.80;;;0.10;99.90;;;;;;5055647;28;20099;-33
2022/11/20 06:54:48;;;;;;;16.67;10.20;;;0.30;99.90;;;;;;5054776;28;20525;-33
2022/11/20 06:57:14;;;;;;;14.23;9.32;;;0.10;99.90;;;;;;5054738;28;20045;-33
2022/11/20 06:59:39;;;;;;;15.40;9.55;;;0.00;99.90;;;;;;5054629;28;20037;-33
2022/11/20 07:02:05;;;;;;;15.47;9.63;;;0.00;99.90;;;;;;5053329;28;20055;-33
2022/11/20 07:04:30;;;;;;;14.98;10.15;;;0.10;99.90;;;;;;5055188;28;20471;-33
2022/11/20 07:06:56;;;;;;;16.23;9.80;;;0.00;99.90;;;;;;5054563;28;20049;-33
2022/11/20 07:09:22;;;;;;;13.13;8.73;;;0.10;99.90;;;;;;5054553;28;20174;-32
2022/11/20 07:11:47;;;;;;;15.50;9.73;;;0.10;99.90;;;;;;5054492;28;20107;-33
2022/11/20 07:14:13;;;;;;;15.10;9.83;;;0.10;99.90;;;;;;5054035;28;20052;-35
2022/11/20 07:16:39;;;;;;;14.17;9.13;;;0.20;99.90;;;;;;5053262;28;20052;-33
2022/11/20 07:19:05;;;;;;;17.93;9.83;;;0.20;99.90;;;;;;5054308;28;20041;-33
2022/11/20 07:21:31;;;;;;;14.27;9.27;;;0.20;99.90;;;;;;5055129;28;20049;-34
2022/11/20 07:23:56;;;;;;;14.90;9.77;;;0.20;99.90;;;;;;5054790;28;20471;-34
2022/11/20 07:26:22;;;;;;;13.97;9.57;;;0.20;99.90;;;;;;5069640;28;20190;-33
2022/11/20 07:28:48;;;;;;;15.43;9.97;;;0.40;99.90;;;;;;5055002;28;20048;-33
2022/11/20 07:31:14;;;;;;;12.45;9.20;;;0.20;99.90;;;;;;5054137;28;20048;-36
2022/11/20 07:33:39;;;;;;;14.50;9.87;;;0.20;99.90;;;;;;5054391;28;20045;-34
2022/11/20 07:36:05;;;;;;;15.10;9.40;;;0.30;99.90;;;;;;5054788;28;20041;-34
2022/11/20 07:38:31;;;;;;;16.27;9.70;;;0.30;99.90;;;;;;5053957;28;20479;-34
2022/11/20 07:40:58;;;;;;;14.03;9.30;;;0.30;99.90;;;;;;5052812;28;20053;-34
2022/11/20 07:43:25;;;;;;;14.63;10.10;;;0.30;99.90;;;;;;5053981;28;20114;-34
2022/11/20 07:45:50;;;;;;;16.17;9.82;;;0.30;99.90;;;;;;5053485;28;20052;-34
2022/11/20 07:48:16;;;;;;;17.53;10.60;;;0.30;99.90;;;;;;5053887;28;20491;-33
2022/11/20 07:50:42;;;;;;;14.63;9.63;;;0.30;99.90;;;;;;5053873;28;20083;-34
2022/11/20 07:53:08;;;;;;;15.10;10.50;;;0.30;99.90;;;;;;5069325;28;20053;-33
2022/11/20 07:55:33;;;;;;;13.93;9.98;;;0.40;99.90;;;;;;5053173;28;20045;-34
2022/11/20 07:57:59;;;;;;;13.75;9.20;;;0.30;99.90;;;;;;5053649;28;20120;-35
2022/11/20 08:00:26;;;;;;;14.43;10.07;;;0.30;99.90;;;;;;5052674;28;20610;-34
2022/11/20 08:02:52;;;;;;;16.60;10.55;;;0.40;99.90;;;;;;5053599;28;20479;-34
2022/11/20 08:05:18;;;;;;;16.37;9.37;;;0.40;99.90;;;;;;5053637;28;20049;-34
2022/11/20 08:07:44;;;;;;;21.80;11.50;;;0.40;99.90;;;;;;5052641;28;20041;-34
2022/11/20 08:10:13;;;;;;;16.65;10.93;;;0.40;99.90;;;;;;5053512;28;20045;-34
2022/11/20 08:15:34;;;;;;;13.80;9.93;;;0.40;99.90;;;;;;5053534;28;20056;-35
2022/11/20 08:18:02;;;;;;;16.17;9.98;;;0.40;99.90;;;;;;5053665;28;20045;-35
2022/11/20 08:20:28;;;;;;;13.93;8.93;;;0.40;99.90;;;;;;5053996;28;20052;-35
2022/11/20 08:23:01;;;;;;;19.08;10.25;;;0.50;99.90;;;;;;5052254;28;20472;-35
2022/11/20 08:25:28;;;;;;;23.88;13.63;;;0.40;99.90;;;;;;5052575;28;20056;-36
2022/11/20 08:27:53;;;;;;;15.70;10.68;;;0.50;99.90;;;;;;5054221;28;20052;-35
2022/11/20 08:30:19;;;;;;;16.85;10.38;;;0.50;99.90;;;;;;5053965;28;20045;-37
2022/11/20 08:32:45;;;;;;;13.70;10.05;;;0.60;99.90;;;;;;5053651;28;20441;-40
2022/11/20 08:35:10;;;;;;;15.10;11.23;;;0.60;99.90;;;;;;5053920;28;20529;-38
2022/11/20 08:37:41;;;;;;;17.88;12.50;;;0.60;99.90;;;;;;5052970;28;20395;-37
2022/11/20 08:40:10;;;;;;;16.13;11.27;;;0.70;99.90;;;;;;5052676;28;20045;-39
2022/11/20 08:42:36;;;;;;;15.68;10.65;;;0.70;99.90;;;;;;5059990;28;20048;-38
2022/11/20 08:45:01;;;;;;;13.93;9.40;;;0.60;99.90;;;;;;5061761;28;20048;-39
2022/11/20 08:47:27;;;;;;;12.98;9.70;;;0.70;99.90;;;;;;5073329;28;20063;-38
2022/11/20 08:49:53;;;;;;;13.60;9.98;;;0.70;99.90;;;;;;5072902;28;20406;-39
2022/11/20 08:52:18;;;;;;;13.25;8.90;;;0.70;99.90;;;;;;5073193;28;20049;-41
2022/11/20 08:54:44;;;;;;;13.15;9.75;;;0.70;99.90;;;;;;5073237;28;20067;-41
2022/11/20 08:57:10;;;;;;;13.70;8.20;;;0.70;99.90;;;;;;5073745;28;20095;-41
2022/11/20 08:59:35;;;;;;;12.45;9.65;;;0.70;99.90;;;;;;5073091;28;20040;-41
2022/11/20 09:02:01;;;;;;;12.88;9.43;;;0.70;99.90;;;;;;5072869;28;20505;-40
2022/11/20 09:04:27;;;;;;;13.30;8.82;;;0.70;99.90;;;;;;5072242;28;20041;-41
2022/11/20 09:06:53;;;;;;;15.07;9.30;;;0.70;99.90;;;;;;5073024;28;20478;-42
2022/11/20 09:09:18;;;;;;;13.07;9.00;;;0.80;99.90;;;;;;5073146;28;20048;-40
2022/11/20 09:11:44;;;;;;;13.70;9.68;;;0.80;99.90;;;;;;5073107;28;20573;-41
2022/11/20 09:14:10;;;;;;;15.43;9.23;;;0.90;99.90;;;;;;5073121;28;20079;-41
2022/11/20 09:16:35;;;;;;;13.98;9.50;;;1.00;99.90;;;;;;5072987;28;20070;-42
2022/11/20 09:19:01;;;;;;;12.90;9.60;;;1.10;99.90;;;;;;5072974;28;20055;-42
2022/11/20 09:21:27;;;;;;;13.40;9.20;;;1.20;99.90;;;;;;5072032;28;20052;-42
2022/11/20 09:23:52;;;;;;;13.75;9.02;;;1.30;99.90;;;;;;5073795;28;20529;-42
2022/11/20 09:26:19;;;;;;;13.30;8.82;;;1.30;99.90;;;;;;5076098;28;20056;-42
2022/11/20 09:28:44;;;;;;;11.07;8.02;;;1.40;99.90;;;;;;5075512;28;20086;-42
2022/11/20 09:31:36;;;;;;;13.07;9.07;;;1.30;99.90;;;;;;5076128;28;20074;-42
2022/11/20 09:34:02;;;;;;;13.98;9.68;;;1.20;99.90;;;;;;5074304;28;20056;-42
2022/11/20 09:36:28;;;;;;;13.15;8.77;;;1.30;99.90;;;;;;5076163;28;20048;-43
2022/11/20 09:38:54;;;;;;;13.30;8.85;;;1.20;99.90;;;;;;5075145;28;20040;-42
2022/11/20 09:41:49;;;;;;;12.95;8.63;;;1.50;99.90;;;;;;5076804;28;20048;-42
2022/11/20 09:44:35;;;;;;;13.43;8.25;;;1.20;99.90;;;;;;5075760;28;20105;-42
2022/11/20 09:47:32;;;;;;;11.13;8.35;;;1.30;99.90;;;;;;5076143;28;20063;-42
2022/11/20 09:50:31;;;;;;;13.55;9.82;;;1.30;99.90;;;;;;5076906;28;20047;-42
2022/11/20 09:53:19;;;;;;;12.95;8.52;;;1.40;99.90;;;;;;5076056;28;20044;-42
2022/11/20 09:55:46;;;;;;;13.55;9.27;;;1.40;99.90;;;;;;5076011;28;20188;-43
2022/11/20 09:58:41;;;;;;;15.25;10.32;;;1.50;99.90;;;;;;5075515;28;20529;-42
2022/11/20 10:01:16;;;;;;;12.43;9.13;;;1.60;99.90;;;;;;5067060;28;20376;-42
2022/11/20 10:04:01;;;;;;;14.63;9.45;;;1.80;99.90;;;;;;5075851;28;20044;-43
2022/11/20 10:06:37;;;;;;;12.52;8.80;;;1.80;99.90;;;;;;5075994;28;20403;-43
2022/11/20 10:09:14;;;;;;;12.07;8.55;;;1.90;99.90;;;;;;5075736;28;20535;-42
2022/11/20 10:12:19;;;;;;;14.37;8.60;;;1.80;5.20;;;;;;5075694;28;20044;-42
2022/11/20 10:15:03;;;;;;;12.57;8.38;;;1.80;99.90;;;;;;5075655;28;20058;-43
2022/11/20 10:18:11;;;;;;;13.07;8.23;;;1.70;99.90;;;;;;5075484;28;20056;-43
2022/11/20 10:21:37;;;;;;;12.45;8.13;;;1.70;93.50;;;;;;5075144;28;20063;-42
2022/11/20 10:24:18;;;;;;;12.15;8.98;;;1.70;99.90;;;;;;5033225;28;20049;-42
2022/11/20 10:26:50;;;;;;;12.70;9.27;;;1.70;99.90;;;;;;5033123;28;20053;-41
2022/11/20 10:29:18;;;;;;;12.82;9.32;;;1.80;99.90;;;;;;5065274;28;20101;-41
2022/11/20 10:31:49;;;;;;;13.77;9.48;;;1.90;99.90;;;;;;5075241;28;20048;-42
2022/11/20 10:34:31;;;;;;;11.10;8.00;;;2.10;1.00;;;;;;5075219;28;20044;-42
2022/11/20 10:37:08;;;;;;;14.45;8.70;;;2.00;99.90;;;;;;5075302;28;20048;-42
2022/11/20 10:40:00;;;;;;;11.65;8.38;;;2.00;99.90;;;;;;5075648;28;20044;-41
2022/11/20 10:42:42;;;;;;;11.60;7.43;;;1.90;99.90;;;;;;5074724;28;20455;-40
2022/11/20 10:45:26;;;;;;;12.57;8.70;;;1.80;99.90;;;;;;5074751;28;20118;-40
2022/11/20 10:48:32;;;;;;;15.55;10.15;;;1.90;99.90;;;;;;5074927;28;20512;-40
2022/11/20 10:51:04;;;;;;;12.60;9.38;;;1.90;1.00;;;;;;5016192;28;20139;-40
2022/11/20 10:53:45;;;;;;;20.63;9.88;;;2.10;6.90;;;;;;5016747;28;20049;-39
2022/11/20 10:56:30;;;;;;;18.50;12.23;;;2.20;8.50;;;;;;5058503;28;20049;-41
2022/11/20 10:59:12;;;;;;;19.75;12.70;;;2.20;1.00;;;;;;5075556;28;20045;-39
2022/11/20 11:01:42;;;;;;;12.80;9.75;;;2.20;99.90;;;;;;5075016;28;20048;-38
2022/11/20 11:04:26;;;;;;;18.67;10.60;;;2.20;75.30;;;;;;5074593;28;20498;-35
2022/11/20 11:06:56;;;;;;;14.90;10.00;;;1.90;99.90;;;;;;5073875;28;20048;-36
2022/11/20 11:09:32;;;;;;;12.40;8.95;;;1.80;1.00;;;;;;5074016;28;20150;-36
2022/11/20 11:11:58;;;;;;;12.77;8.18;;;1.70;99.90;;;;;;5074544;28;20053;-38
2022/11/20 11:14:24;;;;;;;13.57;8.88;;;1.70;99.90;;;;;;5074388;28;20064;-35
2022/11/20 11:16:58;;;;;;;16.90;9.43;;;1.70;1.00;;;;;;5074383;28;20048;-35
2022/11/20 11:19:24;;;;;;;29.40;20.52;;;1.70;99.90;;;;;;5074231;28;20513;-36
2022/11/20 11:21:53;;;;;;;42.63;27.60;;;1.70;99.90;;;;;;5056482;28;20049;-35
2022/11/20 11:24:28;;;;;;;46.70;29.38;;;1.80;99.90;;;;;;5073231;28;20505;-35
2022/11/20 11:27:04;;;;;;;38.00;25.38;;;1.80;1.00;;;;;;5074132;28;20048;-35
2022/11/20 11:29:31;;;;;;;25.20;17.33;;;2.90;12.70;;;;;;5073518;28;20127;-36
2022/11/20 11:32:05;;;;;;;22.42;15.10;;;1.90;1.00;;;;;;5074120;28;20051;-35
2022/11/20 11:34:31;;;;;;;13.45;9.68;;;1.90;99.90;;;;;;5074040;28;20372;-34
2022/11/20 11:37:00;;;;;;;20.33;13.00;;;2.70;99.90;;;;;;5074009;28;20048;-35
2022/11/20 11:39:28;;;;;;;13.80;9.25;;;2.20;1.00;;;;;;5074183;28;20048;-35
2022/11/20 11:41:54;;;;;;;12.18;8.55;;;2.00;99.90;;;;;;5073019;28;20052;-36
2022/11/20 11:47:29;;;;;;;12.07;8.85;;;2.20;99.90;;;;;;5073865;28;20055;-36
2022/11/20 11:50:22;;;;;;;14.52;8.10;;;2.20;99.90;;;;;;5073892;28;20052;-34
2022/11/20 11:53:06;;;;;;;10.53;7.33;;;2.20;99.90;;;;;;5072358;28;20091;-34
2022/11/20 11:55:58;;;;;;;9.00;6.55;;;2.20;1.00;;;;;;5073694;28;20342;-36
2022/11/20 11:58:33;;;;;;;9.05;6.20;;;2.30;99.90;;;;;;5068202;28;20053;-35
2022/11/20 12:01:26;;;;;;;9.73;7.00;;;2.40;1.00;;;;;;5072235;28;20044;-37
2022/11/20 12:04:16;;;;;;;12.68;6.60;;;2.60;34.70;;;;;;5074053;28;20055;-35
2022/11/20 12:06:47;;;;;;;9.32;6.72;;;3.10;1.00;;;;;;5074031;28;20049;-38
2022/11/20 12:09:13;;;;;;;6.80;5.03;;;3.10;1.00;;;;;;5074227;28;20048;-35
2022/11/20 12:11:59;;;;;;;7.75;4.85;;;3.40;99.90;;;;;;5073277;28;20406;-35
2022/11/20 12:14:31;;;;;;;6.40;4.65;;;3.70;99.90;;;;;;5073999;28;20046;-37
2022/11/20 12:16:57;;;;;;;5.13;3.65;;;3.70;99.90;;;;;;5074162;28;20045;-39
2022/11/20 12:19:23;;;;;;;6.85;4.70;;;3.90;99.90;;;;;;5072314;28;20059;-36
2022/11/20 12:22:04;;;;;;;5.05;3.45;;;4.10;1.00;;;;;;5073168;28;20398;-40
2022/11/20 12:24:49;;;;;;;5.53;4.07;;;4.30;87.70;;;;;;5073589;28;20045;-40
2022/11/20 12:27:55;;;;;;;5.50;3.83;;;5.00;99.90;;;;;;5073820;28;20052;-39
2022/11/20 12:30:22;;;;;;;5.13;3.53;;;5.70;1.00;;;;;;5072236;28;20101;-39
2022/11/20 12:33:13;;;;;;;5.25;3.50;;;6.00;1.00;;;;;;5073296;28;20048;-39
2022/11/20 12:36:08;;;;;;;4.65;3.53;;;5.90;99.90;;;;;;5073960;28;20055;-35
2022/11/20 12:39:00;;;;;;;4.63;3.65;;;5.50;1.00;;;;;;5074097;28;20043;-38
2022/11/20 12:45:17;;;;;;;7.00;4.15;;;4.80;1.00;;;;;;5073048;28;20059;-37
2022/11/20 12:47:48;;;;;;;5.55;4.00;;;4.50;1.00;;;;;;5051998;28;20162;-35
2022/11/20 12:50:19;;;;;;;4.95;3.88;;;4.40;2.40;;;;;;5073816;28;20044;-34
2022/11/20 12:52:51;;;;;;;5.22;3.95;;;4.20;98.50;;;;;;5073502;28;20052;-35
2022/11/20 12:55:32;;;;;;;5.60;3.97;;;4.00;99.90;;;;;;5072754;28;20049;-34
2022/11/20 12:58:39;;;;;;;7.78;3.95;;;4.00;99.90;;;;;;5073090;28;20471;-35
2022/11/20 13:01:43;;;;;;;5.78;4.00;;;4.00;1.00;;;;;;5077023;28;20485;-34
2022/11/20 13:04:37;;;;;;;5.85;4.13;;;4.10;99.90;;;;;;5077023;28;20097;-34
2022/11/20 13:07:06;;;;;;;5.63;3.95;;;4.10;99.90;;;;;;5075907;28;20142;-36
2022/11/20 13:09:33;;;;;;;6.57;4.03;;;4.10;99.90;;;;;;5076778;28;20038;-34